Time;durP1;ratioP1;P1;durP2;ratioP2;P2;SDS_P1;SDS_P2;PMS_P1;PMS_P2;Temp;Humidity;BMP_temperature;BMP_pressure;BME280_temperature;BME280_humidity;BME280_pressure;Samples;Min_cycle;Max_cycle;Signal;HPM_P1;HPM_P2
2023/01/13 00:01:22;;;;;;;21.65;10.20;;;;;;;4.73;100.00;98927.56;5091974;28;20067;-65
2023/01/13 00:04:09;;;;;;;15.93;9.73;;;;;;;4.81;100.00;98923.72;5095736;28;20042;-66
2023/01/13 00:06:54;;;;;;;13.55;8.75;;;;;;;4.75;100.00;98933.53;5097996;28;20044;-65
2023/01/13 00:09:39;;;;;;;15.50;9.57;;;;;;;4.73;100.00;98924.97;5082524;28;20531;-64
2023/01/13 00:12:24;;;;;;;12.63;8.88;;;;;;;4.56;100.00;98919.56;5087636;28;20088;-66
2023/01/13 00:15:10;;;;;;;18.10;9.93;;;;;;;4.46;100.00;98915.66;5094623;28;20043;-65
2023/01/13 00:17:56;;;;;;;14.48;9.38;;;;;;;4.38;100.00;98915.13;5095125;28;20402;-65
2023/01/13 00:20:41;;;;;;;16.77;10.63;;;;;;;4.48;100.00;98913.84;5109451;28;20071;-66
2023/01/13 00:23:27;;;;;;;14.95;9.70;;;;;;;4.68;100.00;98909.59;5092336;28;20047;-66
2023/01/13 00:26:17;;;;;;;18.42;11.75;;;;;;;4.63;100.00;98924.50;5076682;28;20125;-66
2023/01/13 00:29:03;;;;;;;18.85;10.20;;;;;;;4.73;100.00;98920.63;5088799;28;20040;-65
2023/01/13 00:31:50;;;;;;;12.02;7.68;;;;;;;4.89;100.00;98919.97;5104956;28;20047;-65
2023/01/13 00:34:34;;;;;;;11.30;7.72;;;;;;;4.83;100.00;98912.44;5090853;28;20040;-65
2023/01/13 00:37:19;;;;;;;16.30;10.07;;;;;;;4.63;100.00;98916.72;5095843;28;20390;-66
2023/01/13 00:40:04;;;;;;;15.43;10.25;;;;;;;4.81;100.00;98912.50;5109161;28;20824;-65
2023/01/13 00:45:52;;;;;;;16.55;10.13;;;;;;;4.56;100.00;98909.19;5091313;28;20107;-65
2023/01/13 00:48:37;;;;;;;15.32;10.23;;;;;;;4.78;100.00;98908.28;5095581;28;20067;-65
2023/01/13 00:51:22;;;;;;;18.48;11.65;;;;;;;4.71;100.00;98901.69;5103912;28;20753;-65
2023/01/13 00:54:07;;;;;;;19.08;11.75;;;;;;;4.76;100.00;98899.72;5091480;28;20040;-66
2023/01/13 00:56:51;;;;;;;15.10;9.65;;;;;;;4.85;100.00;98890.69;5091011;28;20511;-66
2023/01/13 00:59:36;;;;;;;14.32;9.57;;;;;;;4.83;100.00;98887.31;5094553;28;20035;-66
2023/01/13 01:02:23;;;;;;;15.05;10.65;;;;;;;4.69;100.00;98895.69;5107821;28;20040;-67
2023/01/13 01:05:09;;;;;;;12.00;8.75;;;;;;;4.73;100.00;98894.69;5091239;28;20101;-66
2023/01/13 01:07:54;;;;;;;15.43;9.93;;;;;;;4.81;100.00;98894.34;5102944;28;20089;-65
2023/01/13 01:10:40;;;;;;;13.55;9.43;;;;;;;4.78;100.00;98890.09;5090755;28;20040;-66
2023/01/13 01:13:28;;;;;;;15.50;9.82;;;;;;;4.84;100.00;98877.78;5086006;28;20102;-67
2023/01/13 01:16:15;;;;;;;14.30;9.73;;;;;;;4.89;100.00;98879.28;5095247;28;20160;-65
2023/01/13 01:19:01;;;;;;;12.98;8.20;;;;;;;4.83;100.00;98871.72;5090738;28;20134;-66
2023/01/13 01:21:45;;;;;;;14.05;9.50;;;;;;;4.81;100.00;98871.81;5090517;28;20070;-65
2023/01/13 01:24:30;;;;;;;13.75;9.43;;;;;;;4.76;100.00;98870.31;5084518;28;20486;-64
2023/01/13 01:27:15;;;;;;;13.68;9.38;;;;;;;4.67;100.00;98874.16;5091486;28;20064;-66
2023/01/13 01:29:59;;;;;;;15.00;10.48;;;;;;;4.68;100.00;98860.28;5093574;28;20044;-66
2023/01/13 01:32:44;;;;;;;15.73;9.25;;;;;;;4.85;100.00;98858.72;5091976;28;20048;-65
2023/01/13 01:35:28;;;;;;;13.57;9.52;;;;;;;4.72;100.00;98854.03;5110130;28;20409;-65
2023/01/13 01:38:13;;;;;;;15.77;10.00;;;;;;;4.65;100.00;98852.63;5109849;28;20375;-66
2023/01/13 01:40:58;;;;;;;16.27;10.32;;;;;;;4.73;100.00;98847.94;5089327;28;20509;-65
2023/01/13 01:44:01;;;;;;;14.52;9.38;;;;;;;4.76;100.00;98845.22;5107188;28;20359;-66
2023/01/13 01:46:46;;;;;;;15.95;10.27;;;;;;;4.77;100.00;98853.84;5092842;28;20036;-66
2023/01/13 01:49:34;;;;;;;15.10;10.13;;;;;;;4.75;100.00;98853.06;5107687;28;20032;-65
2023/01/13 01:52:41;;;;;;;12.77;9.63;;;;;;;4.75;100.00;98855.66;5095550;28;20040;-65
2023/01/13 01:55:30;;;;;;;10.93;7.60;;;;;;;4.76;100.00;98850.41;5089837;28;20475;-65
2023/01/13 01:58:19;;;;;;;14.95;8.15;;;;;;;4.84;100.00;98850.06;5094749;28;20035;-65
2023/01/13 02:01:04;;;;;;;13.70;8.48;;;;;;;4.86;100.00;98839.63;5089955;28;20064;-65
2023/01/13 02:03:58;;;;;;;15.50;10.57;;;;;;;4.71;100.00;98826.41;5090548;28;20081;-65
2023/01/13 02:06:45;;;;;;;18.60;11.18;;;;;;;4.67;100.00;98820.50;5070184;28;20546;-66
2023/01/13 02:09:31;;;;;;;19.80;13.20;;;;;;;4.48;100.00;98827.38;5104680;28;20069;-65
2023/01/13 02:12:31;;;;;;;19.70;12.32;;;;;;;4.28;100.00;98826.47;5088992;28;20364;-65
2023/01/13 02:15:29;;;;;;;20.63;13.00;;;;;;;4.16;100.00;98818.28;5078235;28;20093;-65
2023/01/13 02:18:42;;;;;;;16.40;10.98;;;;;;;4.16;100.00;98820.06;5093203;28;20046;-65
2023/01/13 02:21:54;;;;;;;19.00;12.48;;;;;;;4.18;100.00;98815.63;5087950;28;20035;-65
2023/01/13 02:25:14;;;;;;;21.10;11.73;;;;;;;4.03;100.00;98802.38;5089747;28;20044;-66
2023/01/13 02:28:18;;;;;;;18.48;12.40;;;;;;;4.06;100.00;98811.81;5101080;28;20045;-67
2023/01/13 02:34:22;;;;;;;20.65;13.30;;;;;;;3.92;100.00;98797.66;5074615;28;20040;-66
2023/01/13 02:37:16;;;;;;;19.50;12.82;;;;;;;3.88;100.00;98793.50;5089058;28;20467;-66
2023/01/13 02:40:27;;;;;;;20.27;13.23;;;;;;;4.00;100.00;98786.97;5107565;28;20039;-66
2023/01/13 02:46:33;;;;;;;15.98;10.75;;;;;;;4.23;100.00;98777.38;5093445;28;20428;-66
2023/01/13 02:49:32;;;;;;;18.77;11.32;;;;;;;4.22;100.00;98774.84;5099601;28;20044;-64
2023/01/13 02:52:24;;;;;;;18.73;12.25;;;;;;;4.24;100.00;98778.22;5093255;28;20054;-65
2023/01/13 02:55:24;;;;;;;16.42;10.85;;;;;;;4.13;100.00;98771.72;5101121;28;20069;-64
2023/01/13 02:58:15;;;;;;;14.50;10.50;;;;;;;4.16;100.00;98775.97;5093119;28;20043;-66
2023/01/13 03:01:00;;;;;;;15.02;9.88;;;;;;;4.09;100.00;98774.53;5093104;28;20113;-65
2023/01/13 03:03:45;;;;;;;16.25;9.65;;;;;;;4.18;100.00;98781.91;5092151;28;20496;-65
2023/01/13 03:07:15;;;;;;;14.95;10.15;;;;;;;4.30;100.00;98777.97;5077735;28;20370;-65
2023/01/13 03:10:32;;;;;;;19.23;12.73;;;;;;;4.22;100.00;98773.09;5093457;28;20070;-65
2023/01/13 03:13:50;;;;;;;16.92;11.32;;;;;;;3.99;100.00;98774.06;5106302;28;20147;-65
2023/01/13 03:16:47;;;;;;;16.73;10.82;;;;;;;3.67;100.00;98782.25;5085229;28;20493;-66
2023/01/13 03:20:10;;;;;;;18.83;12.27;;;;;;;3.59;100.00;98777.34;5089420;28;20402;-67
2023/01/13 03:23:15;;;;;;;14.40;9.95;;;;;;;3.57;100.00;98789.53;5105091;28;20435;-67
2023/01/13 03:26:15;;;;;;;18.35;11.82;;;;;;;3.44;100.00;98786.59;5102999;28;20050;-65
2023/01/13 03:29:05;;;;;;;17.67;12.07;;;;;;;3.32;100.00;98788.75;5100791;28;20044;-65
2023/01/13 03:32:10;;;;;;;21.27;13.02;;;;;;;3.36;100.00;98783.44;5098938;28;20048;-65
2023/01/13 03:35:17;;;;;;;19.80;13.55;;;;;;;3.38;100.00;98789.41;5094859;28;20048;-65
2023/01/13 03:38:07;;;;;;;15.93;10.45;;;;;;;3.40;100.00;98803.13;5095593;28;20047;-65
2023/01/13 03:40:57;;;;;;;18.08;12.13;;;;;;;3.53;100.00;98790.53;5111599;28;20042;-65
2023/01/13 03:47:10;;;;;;;18.45;12.05;;;;;;;3.60;100.00;98797.19;5089018;28;20093;-65
2023/01/13 03:50:00;;;;;;;16.63;10.70;;;;;;;3.68;100.00;98809.84;5101103;28;20073;-65
2023/01/13 03:53:19;;;;;;;17.13;10.10;;;;;;;3.60;100.00;98806.69;5092612;28;20046;-65
2023/01/13 03:56:17;;;;;;;16.13;10.88;;;;;;;3.61;100.00;98805.81;5099306;28;20035;-66
2023/01/13 03:59:07;;;;;;;18.50;11.15;;;;;;;3.66;100.00;98796.94;5096134;28;20661;-65
2023/01/13 04:01:59;;;;;;;19.83;12.40;;;;;;;3.62;100.00;98803.16;5097679;28;20044;-65
2023/01/13 04:04:50;;;;;;;18.80;11.90;;;;;;;3.68;100.00;98792.56;5102157;28;20110;-65
2023/01/13 04:08:00;;;;;;;18.05;10.77;;;;;;;3.72;100.00;98811.38;5102824;28;20031;-65
2023/01/13 04:10:56;;;;;;;17.63;10.27;;;;;;;3.77;100.00;98793.91;5081440;28;20049;-65
2023/01/13 04:13:45;;;;;;;21.35;12.10;;;;;;;3.75;100.00;98811.28;5091659;28;20062;-64
2023/01/13 04:16:30;;;;;;;17.80;11.02;;;;;;;3.73;100.00;98799.28;5096057;28;20048;-63
2023/01/13 04:19:15;;;;;;;17.42;11.02;;;;;;;3.78;100.00;98797.34;5094292;28;20116;-63
2023/01/13 04:22:00;;;;;;;14.55;9.88;;;;;;;3.97;100.00;98796.59;5090931;28;20111;-63
2023/01/13 04:24:44;;;;;;;16.52;10.95;;;;;;;3.97;100.00;98796.59;5076195;28;20040;-64
2023/01/13 04:27:29;;;;;;;17.30;11.38;;;;;;;3.91;100.00;98795.13;5085812;28;20045;-65
2023/01/13 04:30:14;;;;;;;16.38;11.07;;;;;;;3.90;100.00;98801.22;5105415;28;20496;-65
2023/01/13 04:33:00;;;;;;;16.40;11.98;;;;;;;3.77;100.00;98801.69;5063588;28;20036;-64
2023/01/13 04:35:46;;;;;;;18.20;11.40;;;;;;;3.61;100.00;98798.03;5091469;28;20164;-64
2023/01/13 04:38:31;;;;;;;18.02;10.90;;;;;;;3.69;100.00;98801.16;5091210;28;20036;-65
2023/01/13 04:41:15;;;;;;;14.07;9.70;;;;;;;3.78;100.00;98789.59;5091429;28;20433;-64
2023/01/13 04:44:00;;;;;;;19.75;12.95;;;;;;;3.74;100.00;98788.84;5091173;28;20044;-65
2023/01/13 04:46:45;;;;;;;15.13;10.82;;;;;;;3.80;100.00;98788.59;5090934;28;20074;-65
2023/01/13 04:49:30;;;;;;;13.68;9.43;;;;;;;3.87;100.00;98793.56;5104468;28;20447;-64
2023/01/13 04:52:14;;;;;;;16.00;11.40;;;;;;;3.69;100.00;98789.03;5084138;28;20044;-64
2023/01/13 04:54:59;;;;;;;16.38;10.27;;;;;;;3.69;100.00;98791.63;5090610;28;20040;-64
2023/01/13 04:57:44;;;;;;;19.42;12.25;;;;;;;3.66;100.00;98790.91;5090876;28;20040;-64
2023/01/13 05:00:28;;;;;;;21.65;11.63;;;;;;;3.65;100.00;98795.28;5074972;28;20047;-65
2023/01/13 05:03:13;;;;;;;19.05;12.68;;;;;;;3.72;100.00;98793.25;5076856;28;20093;-64
2023/01/13 05:05:58;;;;;;;17.75;11.30;;;;;;;3.69;100.00;98785.59;5096378;28;20115;-65
2023/01/13 05:08:43;;;;;;;17.75;12.10;;;;;;;3.78;100.00;98787.00;5090358;28;20061;-64
2023/01/13 05:17:38;;;;;;;16.73;11.27;;;;;;;3.72;100.00;98789.84;5090255;28;20032;-65
2023/01/13 05:20:23;;;;;;;18.50;13.15;;;;;;;3.43;100.00;98801.28;5097532;28;20133;-64
2023/01/13 05:26:10;;;;;;;19.92;12.93;;;;;;;3.52;100.00;98781.09;5093192;28;20048;-65
2023/01/13 05:28:55;;;;;;;17.77;12.13;;;;;;;3.64;100.00;98775.41;5100421;28;20051;-64
2023/01/13 05:31:40;;;;;;;16.88;11.88;;;;;;;3.78;100.00;98763.66;5075444;28;20044;-64
2023/01/13 05:34:25;;;;;;;21.30;13.43;;;;;;;3.58;100.00;98767.91;5090513;28;20040;-65
2023/01/13 05:37:12;;;;;;;19.27;14.02;;;;;;;3.42;100.00;98772.84;5090199;28;20039;-65
2023/01/13 05:43:23;;;;;;;18.80;11.43;;;;;;;3.73;100.00;98773.38;5099504;28;20043;-65
2023/01/13 05:46:08;;;;;;;21.98;12.02;;;;;;;3.77;100.00;98777.53;5093114;28;20048;-63
2023/01/13 05:48:53;;;;;;;20.73;13.15;;;;;;;3.88;100.00;98785.72;5102343;28;20822;-63
2023/01/13 05:51:45;;;;;;;20.52;12.27;;;;;;;4.14;100.00;98772.59;5090400;28;20386;-63
2023/01/13 05:54:30;;;;;;;20.38;12.02;;;;;;;4.29;100.00;98771.91;5096616;28;20035;-63
2023/01/13 05:57:15;;;;;;;18.60;11.90;;;;;;;3.91;100.00;98770.03;5077232;28;20044;-65
2023/01/13 06:00:00;;;;;;;21.92;12.25;;;;;;;3.82;100.00;98770.41;5086782;28;20072;-65
2023/01/13 06:02:45;;;;;;;19.15;12.38;;;;;;;3.50;100.00;98772.53;5088764;28;20386;-65
2023/01/13 06:05:30;;;;;;;21.15;12.43;;;;;;;3.66;100.00;98768.44;5103484;28;20032;-65
2023/01/13 06:08:17;;;;;;;20.27;12.90;;;;;;;3.38;100.00;98771.28;5100420;28;20050;-66
2023/01/13 06:11:02;;;;;;;20.05;13.35;;;;;;;3.02;100.00;98760.50;5074912;28;20056;-65
2023/01/13 06:13:47;;;;;;;20.52;13.73;;;;;;;2.98;100.00;98765.88;5072756;28;20043;-68
2023/01/13 06:16:31;;;;;;;20.73;13.60;;;;;;;2.92;100.00;98767.78;5086768;28;20127;-65
2023/01/13 06:19:16;;;;;;;25.85;14.70;;;;;;;2.87;100.00;98769.72;5083653;28;20472;-65
2023/01/13 06:22:19;;;;;;;21.92;14.52;;;;;;;2.99;100.00;98773.56;5077673;28;20372;-66
2023/01/13 06:25:10;;;;;;;24.75;14.88;;;;;;;2.84;100.00;98777.56;5093262;28;20075;-66
2023/01/13 06:27:56;;;;;;;25.55;16.08;;;;;;;2.81;100.00;98772.50;5058642;28;20055;-65
2023/01/13 06:30:48;;;;;;;25.83;14.93;;;;;;;2.75;100.00;98767.56;5082492;28;20042;-65
2023/01/13 06:33:44;;;;;;;26.25;15.50;;;;;;;2.68;100.00;98764.34;5088164;28;20063;-65
2023/01/13 06:36:34;;;;;;;21.75;13.60;;;;;;;2.68;100.00;98757.44;5078206;28;20052;-65
2023/01/13 06:39:22;;;;;;;24.40;14.73;;;;;;;2.72;100.00;98760.75;5093074;28;20047;-65
2023/01/13 06:45:10;;;;;;;27.23;15.15;;;;;;;2.78;100.00;98772.63;5070422;28;20040;-65
2023/01/13 06:47:58;;;;;;;26.88;16.67;;;;;;;2.71;100.00;98767.66;5087088;28;20127;-65
2023/01/13 06:50:43;;;;;;;26.23;16.25;;;;;;;2.87;100.00;98771.44;5086599;28;20051;-65
2023/01/13 06:53:27;;;;;;;26.15;16.20;;;;;;;2.90;100.00;98771.31;5084652;28;20051;-66
2023/01/13 06:56:12;;;;;;;25.85;15.98;;;;;;;2.76;100.00;98779.59;5065393;28;20071;-65
2023/01/13 06:58:57;;;;;;;28.23;17.00;;;;;;;2.71;100.00;98777.16;5091770;28;20048;-66
2023/01/13 07:01:42;;;;;;;26.63;16.92;;;;;;;2.66;100.00;98786.84;5093085;28;20097;-65
2023/01/13 07:04:27;;;;;;;27.95;16.80;;;;;;;2.61;100.00;98789.59;5082216;28;20028;-65
2023/01/13 07:07:12;;;;;;;24.67;15.70;;;;;;;2.59;100.00;98792.22;5092038;28;20111;-65
2023/01/13 07:09:57;;;;;;;27.90;16.67;;;;;;;2.66;100.00;98797.19;5077333;28;20032;-67
2023/01/13 07:15:58;;;;;;;26.77;16.45;;;;;;;2.68;100.00;98806.59;5078597;28;20044;-67
2023/01/13 07:18:43;;;;;;;23.52;14.90;;;;;;;2.73;100.00;98800.38;5078041;28;20093;-65
2023/01/13 07:21:27;;;;;;;24.58;15.15;;;;;;;2.82;100.00;98798.31;5077509;28;20527;-65
2023/01/13 07:24:12;;;;;;;24.73;14.90;;;;;;;2.81;100.00;98794.06;5081908;28;20140;-65
2023/01/13 07:26:57;;;;;;;25.10;15.40;;;;;;;2.85;100.00;98783.59;5072051;28;20496;-65
2023/01/13 07:29:42;;;;;;;23.48;14.65;;;;;;;2.80;100.00;98791.53;5085190;28;20512;-65
2023/01/13 07:32:27;;;;;;;21.92;14.18;;;;;;;2.98;100.00;98795.19;5072031;28;20048;-65
2023/01/13 07:35:11;;;;;;;26.13;16.00;;;;;;;2.77;100.00;98799.41;5063850;28;20048;-65
2023/01/13 07:37:56;;;;;;;26.13;16.13;;;;;;;2.84;100.00;98800.84;5078022;28;20850;-65
2023/01/13 07:40:41;;;;;;;29.23;16.63;;;;;;;2.82;100.00;98810.44;5080059;28;20045;-66
2023/01/13 07:43:35;;;;;;;28.95;16.92;;;;;;;2.82;100.00;98813.03;5082630;28;20131;-66
2023/01/13 07:46:20;;;;;;;30.15;15.85;;;;;;;2.89;100.00;98818.81;5084031;28;20037;-66
2023/01/13 07:49:06;;;;;;;29.90;18.70;;;;;;;2.98;100.00;98808.13;5081936;28;20051;-66
2023/01/13 07:51:50;;;;;;;35.10;19.90;;;;;;;2.88;100.00;98811.94;5082563;28;20395;-66
2023/01/13 07:54:35;;;;;;;35.03;20.60;;;;;;;2.85;100.00;98806.88;5071886;28;20040;-65
2023/01/13 07:57:20;;;;;;;33.05;19.00;;;;;;;2.75;100.00;98814.97;5070341;28;20406;-66
2023/01/13 08:00:05;;;;;;;34.03;19.75;;;;;;;2.83;100.00;98812.09;5071752;28;20041;-65
2023/01/13 08:02:51;;;;;;;29.17;17.45;;;;;;;2.85;100.00;98818.09;5072539;28;20399;-65
2023/01/13 08:05:35;;;;;;;32.20;17.75;;;;;;;2.89;100.00;98811.88;5075487;28;20054;-66
2023/01/13 08:08:20;;;;;;;32.90;18.95;;;;;;;2.93;100.00;98820.38;5084588;28;20047;-65
2023/01/13 08:11:07;;;;;;;26.83;16.65;;;;;;;2.91;100.00;98810.09;5080066;28;20046;-65
2023/01/13 08:13:55;;;;;;;29.42;16.98;;;;;;;3.00;100.00;98805.47;5078089;28;20036;-66
2023/01/13 08:16:39;;;;;;;26.30;16.23;;;;;;;2.94;100.00;98804.81;5088011;28;20398;-65
2023/01/13 08:19:24;;;;;;;29.63;16.98;;;;;;;2.97;100.00;98815.94;5071668;28;20040;-65
2023/01/13 08:22:09;;;;;;;28.60;17.42;;;;;;;3.20;100.00;98813.34;5071464;28;20390;-65
2023/01/13 08:24:53;;;;;;;28.55;17.00;;;;;;;3.30;100.00;98810.41;5072540;28;20048;-65
2023/01/13 08:27:39;;;;;;;32.20;17.75;;;;;;;3.31;100.00;98804.34;5091364;28;20068;-64
2023/01/13 08:30:24;;;;;;;24.80;16.05;;;;;;;3.36;100.00;98806.75;5084177;28;20036;-64
2023/01/13 08:33:10;;;;;;;23.35;15.05;;;;;;;3.33;100.00;98810.28;5070575;28;20055;-64
2023/01/13 08:35:55;;;;;;;21.15;13.60;;;;;;;3.51;100.00;98813.09;5068691;28;20036;-65
2023/01/13 08:38:40;;;;;;;20.27;13.32;;;;;;;3.67;100.00;98810.75;5085310;28;20036;-66
2023/01/13 08:44:30;;;;;;;22.55;13.75;;;;;;;3.92;100.00;98812.34;5077558;28;20050;-66
2023/01/13 08:47:14;;;;;;;19.95;12.52;;;;;;;4.02;100.00;98816.25;5090319;28;20044;-66
2023/01/13 08:49:59;;;;;;;16.65;12.13;;;;;;;4.23;100.00;98821.47;5080468;28;20097;-66
2023/01/13 08:52:44;;;;;;;21.30;13.13;;;;;;;4.13;100.00;98828.78;5090034;28;20036;-65
2023/01/13 08:55:29;;;;;;;17.70;12.25;;;;;;;3.97;100.00;98827.72;5084986;28;20546;-66
2023/01/13 08:58:13;;;;;;;18.02;11.65;;;;;;;4.18;100.00;98824.25;5057096;28;20040;-64
2023/01/13 09:01:04;;;;;;;16.80;12.20;;;;;;;4.36;100.00;98826.97;5070626;28;20231;-64
2023/01/13 09:03:48;;;;;;;18.73;12.13;;;;;;;4.92;100.00;98826.38;5076632;28;20595;-65
2023/01/13 09:06:33;;;;;;;18.02;11.77;;;;;;;5.24;100.00;98825.84;5079971;28;20101;-66
2023/01/13 09:09:18;;;;;;;18.50;12.30;;;;;;;5.12;100.00;98824.63;5062534;28;20052;-65
2023/01/13 09:15:06;;;;;;;15.95;11.07;;;;;;;5.62;100.00;98836.22;5090243;28;20066;-65
2023/01/13 09:17:52;;;;;;;16.30;11.13;;;;;;;5.59;100.00;98843.31;5090380;28;20047;-64
2023/01/13 09:20:36;;;;;;;18.92;11.85;;;;;;;5.42;100.00;98842.31;5090250;28;20036;-66
2023/01/13 09:23:22;;;;;;;17.38;11.02;;;;;;;5.99;100.00;98827.56;5103983;28;20035;-64
2023/01/13 09:26:08;;;;;;;23.02;14.98;;;;;;;5.74;100.00;98813.16;5095789;28;20116;-64
2023/01/13 09:28:53;;;;;;;23.23;14.23;;;;;;;5.30;100.00;98797.81;5110116;28;20478;-64
2023/01/13 09:31:37;;;;;;;24.30;15.25;;;;;;;5.27;100.00;98804.91;5096132;28;20526;-64
2023/01/13 09:37:33;;;;;;;14.63;10.13;;;;;;;5.23;100.00;98837.13;5089909;28;20461;-65
2023/01/13 09:40:21;;;;;;;14.57;9.48;;;;;;;5.07;100.00;98829.19;5090915;28;20043;-64
2023/01/13 09:46:46;;;;;;;12.40;8.05;;;;;;;6.55;95.65;98816.19;5089578;28;20434;-67
2023/01/13 09:49:36;;;;;;;11.95;7.68;;;;;;;6.60;95.52;98812.44;5096045;28;20516;-65
2023/01/13 09:52:23;;;;;;;12.68;8.18;;;;;;;6.80;91.84;98805.34;5089789;28;20059;-64
2023/01/13 09:55:16;;;;;;;11.02;7.72;;;;;;;6.56;93.61;98804.88;5090237;28;20051;-64
2023/01/13 09:58:09;;;;;;;10.95;8.07;;;;;;;6.60;93.45;98798.56;5075100;28;20127;-66
2023/01/13 10:01:14;;;;;;;12.23;7.88;;;;;;;6.22;94.77;98805.66;5103074;28;20355;-66
2023/01/13 10:04:25;;;;;;;13.55;8.00;;;;;;;6.57;93.40;98804.78;5078113;28;20047;-64
2023/01/13 10:07:13;;;;;;;11.30;8.35;;;;;;;5.83;94.99;98799.69;5104351;28;20087;-65
2023/01/13 10:09:59;;;;;;;12.32;7.43;;;;;;;5.86;96.60;98786.53;5098238;28;20147;-64
2023/01/13 10:15:50;;;;;;;9.57;6.78;;;;;;;6.03;96.37;98780.53;5097855;28;20048;-65
2023/01/13 10:18:44;;;;;;;11.90;6.75;;;;;;;5.92;95.14;98782.81;5106591;28;20070;-65
2023/01/13 10:21:29;;;;;;;10.40;6.55;;;;;;;5.89;96.08;98769.97;5092932;28;20048;-64
2023/01/13 10:24:21;;;;;;;9.57;6.53;;;;;;;6.08;94.29;98775.13;5090239;28;20052;-65
2023/01/13 10:27:20;;;;;;;12.00;6.93;;;;;;;5.79;95.04;98774.78;5089561;28;20108;-64
2023/01/13 10:30:39;;;;;;;9.98;6.80;;;;;;;5.91;95.28;98758.56;5103344;28;20111;-65
2023/01/13 10:33:28;;;;;;;9.02;6.32;;;;;;;6.07;95.15;98757.81;5095851;28;20488;-64
2023/01/13 10:36:20;;;;;;;9.00;5.90;;;;;;;6.34;92.61;98753.91;5088032;28;20043;-64
2023/01/13 10:39:14;;;;;;;9.98;6.72;;;;;;;6.12;94.69;98739.41;5089737;28;20050;-65
2023/01/13 10:42:05;;;;;;;7.55;6.15;;;;;;;5.86;94.06;98736.31;5098687;28;20050;-64
2023/01/13 10:44:51;;;;;;;;;;;;;;;5.53;95.73;98727.50;5082338;28;20058;-65
2023/01/13 10:47:36;;;;;;;12.00;6.32;;;;;;;5.48;97.40;98721.66;5089771;28;19915;-64
2023/01/13 10:50:25;;;;;;;10.32;6.60;;;;;;;5.42;97.47;98723.66;5105212;28;20040;-65
2023/01/13 10:53:21;;;;;;;8.63;6.13;;;;;;;5.59;98.36;98718.53;5094487;28;20040;-65
2023/01/13 10:56:16;;;;;;;12.88;8.05;;;;;;;5.66;96.86;98718.16;5089409;28;20040;-65
2023/01/13 10:59:25;;;;;;;12.93;7.00;;;;;;;6.27;94.26;98707.38;5089388;28;20040;-65
2023/01/13 11:02:29;;;;;;;13.40;8.02;;;;;;;6.33;92.76;98716.66;5106990;28;20046;-65
2023/01/13 11:05:23;;;;;;;11.45;7.68;;;;;;;6.00;93.98;98715.66;5107030;28;20035;-64
2023/01/13 11:08:18;;;;;;;10.68;7.75;;;;;;;5.83;95.19;98713.91;5092847;28;20391;-65
2023/01/13 11:11:23;;;;;;;14.82;8.38;;;;;;;5.90;95.29;98715.28;5112093;28;20040;-66
2023/01/13 11:14:41;;;;;;;12.48;7.47;;;;;;;5.72;97.05;98722.22;5092800;28;20040;-64
2023/01/13 11:17:40;;;;;;;15.00;8.65;;;;;;;5.71;97.66;98706.72;5093253;28;20044;-66
2023/01/13 11:20:39;;;;;;;11.90;7.68;;;;;;;5.54;98.38;98703.19;5101036;28;20047;-65
2023/01/13 11:23:39;;;;;;;11.82;7.32;;;;;;;5.42;99.54;98695.06;5079800;28;20078;-64
2023/01/13 11:26:39;;;;;;;10.80;6.55;;;;;;;5.46;99.10;98685.38;5098429;28;20058;-64
2023/01/13 11:29:36;;;;;;;10.98;7.88;;;;;;;5.44;99.45;98689.78;5099934;28;20467;-65
2023/01/13 11:32:22;;;;;;;9.45;6.80;;;;;;;5.47;100.00;98681.03;5092628;28;20044;-65
2023/01/13 11:35:17;;;;;;;8.85;6.30;;;;;;;5.46;98.60;98685.38;5098260;28;20116;-65
2023/01/13 11:38:12;;;;;;;8.68;6.57;;;;;;;5.98;96.57;98683.69;5080074;28;20043;-64
2023/01/13 11:41:07;;;;;;;12.48;7.13;;;;;;;6.14;95.92;98680.31;5106030;28;20052;-65
2023/01/13 11:44:21;;;;;;;10.45;6.63;;;;;;;6.38;93.87;98661.75;5092811;28;20049;-64
2023/01/13 11:47:10;;;;;;;9.52;6.47;;;;;;;7.24;89.83;98663.19;5104563;28;20051;-65
2023/01/13 11:49:55;;;;;;;12.25;7.43;;;;;;;7.68;87.50;98665.94;5100899;28;20052;-64
2023/01/13 11:53:17;;;;;;;10.80;6.68;;;;;;;7.83;86.26;98660.75;5104830;28;20073;-65
2023/01/13 11:56:11;;;;;;;12.52;6.55;;;;;;;8.30;83.48;98673.66;5091748;28;20036;-65
2023/01/13 11:59:25;;;;;;;9.80;6.47;;;;;;;8.11;83.30;98670.38;5104940;28;20503;-65
2023/01/13 12:03:00;;;;;;;10.43;6.53;;;;;;;7.84;85.15;98673.72;5076933;28;20036;-65
2023/01/13 12:05:51;;;;;;;9.57;5.43;;;;;;;8.04;85.08;98671.69;5006695;28;20041;-65
2023/01/13 12:09:10;;;;;;;8.47;5.87;;;;;;;8.31;82.42;98678.78;4996080;28;20043;-65
2023/01/13 12:12:33;;;;;;;8.88;5.50;;;;;;;7.91;84.29;98673.34;4976925;28;20054;-65
2023/01/13 12:15:54;;;;;;;8.48;6.00;;;;;;;7.79;86.96;98665.31;5008458;28;20103;-66
2023/01/13 12:18:54;;;;;;;7.78;5.30;;;;;;;7.80;87.38;98672.19;5008857;28;20442;-64
2023/01/13 12:22:08;;;;;;;7.90;4.97;;;;;;;7.81;85.57;98667.81;5020082;28;20048;-65
2023/01/13 12:25:01;;;;;;;8.88;5.57;;;;;;;7.50;88.73;98663.47;4986687;28;20049;-67
2023/01/13 12:27:57;;;;;;;7.63;5.00;;;;;;;6.61;92.00;98657.91;5009044;28;20046;-66
2023/01/13 12:30:53;;;;;;;7.80;5.28;;;;;;;7.00;92.77;98673.22;4988095;28;20185;-64
2023/01/13 12:34:01;;;;;;;8.25;4.65;;;;;;;7.19;91.07;98667.81;4977426;28;20050;-65
2023/01/13 12:37:07;;;;;;;9.20;5.80;;;;;;;6.76;92.85;98665.81;5008780;28;20045;-66
2023/01/13 12:40:03;;;;;;;9.18;6.13;;;;;;;6.70;93.17;98656.59;5075837;28;20067;-65
2023/01/13 12:46:20;;;;;;;9.10;5.45;;;;;;;6.36;96.06;98654.03;5091730;28;20043;-65
2023/01/13 12:49:06;;;;;;;9.85;5.70;;;;;;;6.48;96.24;98659.50;5103973;28;20050;-64
2023/01/13 12:51:51;;;;;;;10.75;5.38;;;;;;;6.53;96.34;98663.53;5075308;28;20355;-65
2023/01/13 12:54:35;;;;;;;8.07;4.88;;;;;;;6.57;96.20;98664.22;5090549;28;20539;-65
2023/01/13 12:57:23;;;;;;;11.77;6.22;;;;;;;6.39;96.85;98666.03;5078806;28;20043;-65
2023/01/13 13:00:07;;;;;;;9.30;5.70;;;;;;;6.46;97.21;98659.59;5104694;28;20066;-65
2023/01/13 13:03:13;;;;;;;7.35;5.30;;;;;;;6.35;98.31;98665.34;5093372;28;20044;-65
2023/01/13 13:06:21;;;;;;;8.18;5.57;;;;;;;6.09;99.63;98657.16;5098050;28;20071;-66
2023/01/13 13:09:30;;;;;;;9.75;6.30;;;;;;;5.85;100.00;98667.88;5090533;28;20040;-66
2023/01/13 13:15:34;;;;;;;9.35;5.80;;;;;;;6.29;99.79;98657.88;5082518;28;20036;-65
2023/01/13 13:18:23;;;;;;;9.43;5.80;;;;;;;6.05;100.00;98660.84;5110485;28;20046;-66
2023/01/13 13:21:09;;;;;;;9.15;5.80;;;;;;;5.84;100.00;98658.41;5096841;28;20059;-66
2023/01/13 13:24:02;;;;;;;9.82;6.63;;;;;;;6.03;100.00;98673.03;5082407;28;20039;-66
2023/01/13 13:26:47;;;;;;;11.95;7.95;;;;;;;6.31;100.00;98676.84;5104893;28;20040;-65
2023/01/13 13:29:46;;;;;;;11.77;7.32;;;;;;;6.26;100.00;98673.66;5095844;28;20047;-64
2023/01/13 13:32:50;;;;;;;11.52;7.13;;;;;;;6.40;99.24;98680.72;5090697;28;20048;-65
2023/01/13 13:35:34;;;;;;;11.90;6.53;;;;;;;6.64;98.84;98682.97;5084726;28;20441;-65
2023/01/13 13:48:28;;;;;;;10.63;6.03;;;;;;;6.02;100.00;98679.19;5099196;28;20505;-64
2023/01/13 13:51:36;;;;;;;11.77;6.25;;;;;;;6.00;100.00;98694.84;5092527;28;20467;-64
2023/01/13 13:54:21;;;;;;;11.82;6.80;;;;;;;5.94;100.00;98694.31;5105071;28;20040;-65
2023/01/13 13:57:22;;;;;;;12.38;7.40;;;;;;;5.69;100.00;98708.53;5090423;28;20043;-63
2023/01/13 14:00:31;;;;;;;9.43;6.70;;;;;;;5.81;100.00;98700.13;5102330;28;20462;-64
2023/01/13 14:03:33;;;;;;;9.85;6.45;;;;;;;6.06;100.00;98706.72;5090480;28;20131;-66
2023/01/13 14:06:24;;;;;;;10.60;6.45;;;;;;;5.95;100.00;98702.03;5099236;28;20044;-64
2023/01/13 14:09:16;;;;;;;8.80;6.88;;;;;;;5.64;100.00;98701.81;5090763;28;20039;-64
2023/01/13 14:12:02;;;;;;;;;;;;;;;5.60;100.00;98697.69;5093045;28;20055;-65
2023/01/13 14:14:48;;;;;;;10.57;6.97;;;;;;;5.57;100.00;98713.41;5081553;28;19935;-64
2023/01/13 14:17:33;;;;;;;10.40;7.13;;;;;;;5.63;100.00;98712.28;5089741;28;20082;-65
2023/01/13 14:20:18;;;;;;;12.73;7.70;;;;;;;5.53;100.00;98717.09;5090502;28;20067;-65